Time,TemperatureF,DewpointF,PressureIn,WindDirection,WindDirectionDegrees,WindSpeedMPH,WindSpeedGustMPH,Humidity,HourlyPrecipIn,Conditions,Clouds,dailyrainin,SolarRadiationWatts/m^2,SoftwareType,DateUTC
2013-07-17 00:01:00,70.0,67.0,-100.00,ENE,58,2.0,6.0,91,0.00,,,-99.99,0.000000,,2013-07-17 04:01:00,
2013-07-17 00:32:00,70.0,67.0,-100.00,ENE,58,2.0,6.0,91,0.00,,,-99.99,0.000000,,2013-07-17 04:32:00,
2013-07-17 00:43:00,70.0,67.0,-100.00,ENE,58,2.0,6.0,91,0.00,,,-99.99,0.000000,,2013-07-17 04:43:00,
2013-07-17 00:53:00,70.0,67.0,-100.00,ENE,58,2.0,6.0,91,0.00,,,-99.99,0.000000,,2013-07-17 04:53:00,
2013-07-17 01:01:00,69.0,68.0,-100.00,North,9,2.0,4.0,95,0.00,,,-99.99,0.000000,,2013-07-17 05:01:00,
2013-07-17 01:32:00,69.0,68.0,-100.00,North,9,2.0,4.0,95,0.00,,,-99.99,0.000000,,2013-07-17 05:32:00,
2013-07-17 01:43:00,69.0,68.0,-100.00,North,9,2.0,4.0,95,0.00,,,-99.99,0.000000,,2013-07-17 05:43:00,
2013-07-17 01:52:00,69.0,68.0,-100.00,North,9,2.0,4.0,95,0.00,,,-99.99,0.000000,,2013-07-17 05:52:00,
2013-07-17 02:01:00,71.0,67.0,-100.00,ESE,112,2.0,5.0,88,0.00,,,-99.99,0.000000,,2013-07-17 06:01:00,
2013-07-17 02:33:00,71.0,67.0,-100.00,ESE,112,2.0,5.0,88,0.00,,,-99.99,0.000000,,2013-07-17 06:33:00,
2013-07-17 02:43:00,71.0,67.0,-100.00,ESE,112,2.0,5.0,88,0.00,,,-99.99,0.000000,,2013-07-17 06:43:00,
2013-07-17 02:52:00,71.0,67.0,-100.00,ESE,112,2.0,5.0,88,0.00,,,-99.99,0.000000,,2013-07-17 06:52:00,
2013-07-17 03:01:00,68.0,67.0,-100.00,South,189,1.0,4.0,98,0.00,,,-99.99,0.000000,,2013-07-17 07:01:00,
2013-07-17 03:32:00,68.0,67.0,-100.00,South,189,1.0,4.0,98,0.00,,,-99.99,0.000000,,2013-07-17 07:32:00,
2013-07-17 03:42:00,68.0,67.0,-100.00,South,189,1.0,4.0,98,0.00,,,-99.99,0.000000,,2013-07-17 07:42:00,
2013-07-17 03:52:00,68.0,67.0,-100.00,South,189,1.0,4.0,98,0.00,,,-99.99,0.000000,,2013-07-17 07:52:00,
2013-07-17 04:01:00,68.0,67.0,-100.00,North,353,2.0,3.0,98,0.00,,,-99.99,0.000000,,2013-07-17 08:01:00,
2013-07-17 04:22:00,68.0,67.0,-100.00,North,353,2.0,3.0,98,0.00,,,-99.99,0.000000,,2013-07-17 08:22:00,
2013-07-17 04:32:00,68.0,67.0,-100.00,North,353,2.0,3.0,98,0.00,,,-99.99,0.000000,,2013-07-17 08:32:00,
2013-07-17 04:43:00,68.0,67.0,-100.00,North,353,2.0,3.0,98,0.00,,,-99.99,0.000000,,2013-07-17 08:43:00,
2013-07-17 04:53:00,68.0,67.0,-100.00,North,353,2.0,3.0,98,0.00,,,-99.99,0.000000,,2013-07-17 08:53:00,
2013-07-17 05:01:00,68.0,67.0,-100.00,NNE,33,1.0,3.0,95,0.00,,,-99.99,0.000000,,2013-07-17 09:01:00,
2013-07-17 05:22:00,68.0,67.0,-100.00,NNE,33,1.0,3.0,95,0.00,,,-99.99,0.000000,,2013-07-17 09:22:00,
2013-07-17 05:32:00,68.0,67.0,-100.00,NNE,33,1.0,3.0,95,0.00,,,-99.99,0.000000,,2013-07-17 09:32:00,
2013-07-17 05:43:00,68.0,67.0,-100.00,NNE,33,1.0,3.0,95,0.00,,,-99.99,0.000000,,2013-07-17 09:43:00,
2013-07-17 05:52:00,68.0,67.0,-100.00,NNE,33,1.0,3.0,95,0.00,,,-99.99,0.000000,,2013-07-17 09:52:00,
2013-07-17 06:01:00,68.0,67.0,-100.00,SSE,162,1.0,3.0,98,0.00,,,-99.99,0.000000,,2013-07-17 10:01:00,
2013-07-17 06:22:00,68.0,67.0,-100.00,SSE,162,1.0,3.0,98,0.00,,,-99.99,0.000000,,2013-07-17 10:22:00,
2013-07-17 06:32:00,68.0,67.0,-100.00,SSE,162,1.0,3.0,98,0.00,,,-99.99,0.000000,,2013-07-17 10:32:00,
2013-07-17 06:43:00,68.0,67.0,-100.00,SSE,162,1.0,3.0,98,0.00,,,-99.99,0.000000,,2013-07-17 10:43:00,
2013-07-17 06:52:00,68.0,67.0,-100.00,SSE,162,1.0,3.0,98,0.00,,,-99.99,0.000000,,2013-07-17 10:52:00,
2013-07-17 07:01:00,68.0,67.0,-100.00,NNW,343,0.0,3.0,98,0.00,,,-99.99,21.000000,,2013-07-17 11:01:00,
2013-07-17 07:32:00,68.0,67.0,-100.00,NNW,343,0.0,3.0,98,0.00,,,-99.99,21.000000,,2013-07-17 11:32:00,
2013-07-17 07:42:00,68.0,67.0,-100.00,NNW,343,0.0,3.0,98,0.00,,,-99.99,21.000000,,2013-07-17 11:42:00,
2013-07-17 07:52:00,68.0,67.0,-100.00,NNW,343,0.0,3.0,98,0.00,,,-99.99,21.000000,,2013-07-17 11:52:00,
2013-07-17 08:01:00,72.0,71.0,-100.00,SSE,161,1.0,3.0,96,0.00,,,-99.99,122.000000,,2013-07-17 12:01:00,
2013-07-17 08:22:00,72.0,71.0,-100.00,SSE,161,1.0,3.0,96,0.00,,,-99.99,122.000000,,2013-07-17 12:22:00,
2013-07-17 08:32:00,72.0,71.0,-100.00,SSE,161,1.0,3.0,96,0.00,,,-99.99,122.000000,,2013-07-17 12:32:00,
2013-07-17 08:43:00,72.0,71.0,-100.00,SSE,161,1.0,3.0,96,0.00,,,-99.99,122.000000,,2013-07-17 12:43:00,
2013-07-17 08:53:00,72.0,71.0,-100.00,SSE,161,1.0,3.0,96,0.00,,,-99.99,122.000000,,2013-07-17 12:53:00,
2013-07-17 09:01:00,77.0,71.0,-100.00,South,191,2.0,2.0,82,0.00,,,-99.99,359.000000,,2013-07-17 13:01:00,
2013-07-17 09:32:00,77.0,71.0,-100.00,South,191,2.0,2.0,82,0.00,,,-99.99,359.000000,,2013-07-17 13:32:00,
2013-07-17 09:43:00,77.0,71.0,-100.00,South,191,2.0,2.0,82,0.00,,,-99.99,359.000000,,2013-07-17 13:43:00,
2013-07-17 09:53:00,77.0,71.0,-100.00,South,191,2.0,2.0,82,0.00,,,-99.99,359.000000,,2013-07-17 13:53:00,
2013-07-17 10:01:00,81.0,73.0,-100.00,SSW,192,2.0,5.0,78,0.00,,,-99.99,565.000000,,2013-07-17 14:01:00,
2013-07-17 10:32:00,81.0,73.0,-100.00,SSW,192,2.0,5.0,78,0.00,,,-99.99,565.000000,,2013-07-17 14:32:00,
2013-07-17 10:43:00,81.0,73.0,-100.00,SSW,192,2.0,5.0,78,0.00,,,-99.99,565.000000,,2013-07-17 14:43:00,
2013-07-17 10:52:00,81.0,73.0,-100.00,SSW,192,2.0,5.0,78,0.00,,,-99.99,565.000000,,2013-07-17 14:52:00,
2013-07-17 11:01:00,84.0,73.0,-100.00,South,182,3.0,5.0,69,0.00,,,-99.99,781.000000,,2013-07-17 15:01:00,
2013-07-17 11:32:00,84.0,73.0,-100.00,South,182,3.0,5.0,69,0.00,,,-99.99,781.000000,,2013-07-17 15:32:00,
2013-07-17 11:43:00,84.0,73.0,-100.00,South,182,3.0,5.0,69,0.00,,,-99.99,781.000000,,2013-07-17 15:43:00,
2013-07-17 11:52:00,84.0,73.0,-100.00,South,182,3.0,5.0,69,0.00,,,-99.99,781.000000,,2013-07-17 15:52:00,
2013-07-17 12:01:00,87.0,72.0,-100.00,NNE,14,3.0,5.0,62,0.00,,,-99.99,939.000000,,2013-07-17 16:01:00,
2013-07-17 12:33:00,87.0,72.0,-100.00,NNE,14,3.0,5.0,62,0.00,,,-99.99,939.000000,,2013-07-17 16:33:00,
2013-07-17 12:43:00,87.0,72.0,-100.00,NNE,14,3.0,5.0,62,0.00,,,-99.99,939.000000,,2013-07-17 16:43:00,
2013-07-17 12:52:00,87.0,72.0,-100.00,NNE,14,3.0,5.0,62,0.00,,,-99.99,939.000000,,2013-07-17 16:52:00,
2013-07-17 13:01:00,86.0,70.0,-100.00,NE,51,3.0,6.0,59,0.00,,,0.00,655.000000,,2013-07-17 17:01:00,
2013-07-17 13:32:00,86.0,70.0,-100.00,NE,51,3.0,6.0,59,0.00,,,0.00,655.000000,,2013-07-17 17:32:00,
2013-07-17 13:43:00,86.0,70.0,-100.00,NE,51,3.0,6.0,59,0.00,,,0.00,655.000000,,2013-07-17 17:43:00,
2013-07-17 13:52:00,86.0,70.0,-100.00,NE,51,3.0,6.0,59,0.00,,,0.00,655.000000,,2013-07-17 17:52:00,
2013-07-17 14:01:00,81.0,63.0,-100.00,North,355,4.0,7.0,54,0.00,,,0.00,680.000000,,2013-07-17 18:01:00,
2013-07-17 14:32:00,81.0,63.0,-100.00,North,355,4.0,7.0,54,0.00,,,0.00,680.000000,,2013-07-17 18:32:00,
2013-07-17 14:43:00,81.0,63.0,-100.00,North,355,4.0,7.0,54,0.00,,,0.00,680.000000,,2013-07-17 18:43:00,
2013-07-17 14:52:00,81.0,63.0,-100.00,North,355,4.0,7.0,54,0.00,,,0.00,680.000000,,2013-07-17 18:52:00,
2013-07-17 15:01:00,73.0,72.0,-100.00,WSW,251,2.0,8.0,96,0.09,,,0.09,96.000000,,2013-07-17 19:01:00,
2013-07-17 15:32:00,73.0,72.0,-100.00,WSW,251,2.0,8.0,96,0.09,,,0.09,96.000000,,2013-07-17 19:32:00,
2013-07-17 15:43:00,73.0,72.0,-100.00,WSW,251,2.0,8.0,96,0.09,,,0.09,96.000000,,2013-07-17 19:43:00,
2013-07-17 15:53:00,73.0,72.0,-100.00,WSW,251,2.0,8.0,96,0.09,,,0.09,96.000000,,2013-07-17 19:53:00,
2013-07-17 16:01:00,76.0,75.0,-100.00,SW,225,1.0,4.0,97,0.00,,,0.09,199.000000,,2013-07-17 20:01:00,
2013-07-17 16:33:00,76.0,75.0,-100.00,SW,225,1.0,4.0,97,0.00,,,0.09,199.000000,,2013-07-17 20:33:00,
2013-07-17 16:43:00,76.0,75.0,-100.00,SW,225,1.0,4.0,97,0.00,,,0.09,199.000000,,2013-07-17 20:43:00,
2013-07-17 16:53:00,76.0,75.0,-100.00,SW,225,1.0,4.0,97,0.00,,,0.09,199.000000,,2013-07-17 20:53:00,
2013-07-17 17:01:00,79.0,77.0,-100.00,NNE,27,0.0,2.0,93,0.00,,,0.09,245.000000,,2013-07-17 21:01:00,
2013-07-17 17:32:00,79.0,77.0,-100.00,NNE,27,0.0,2.0,93,0.00,,,0.09,245.000000,,2013-07-17 21:32:00,
2013-07-17 17:42:00,79.0,77.0,-100.00,NNE,27,0.0,2.0,93,0.00,,,0.09,245.000000,,2013-07-17 21:42:00,
2013-07-17 17:53:00,79.0,77.0,-100.00,NNE,27,0.0,2.0,93,0.00,,,0.09,245.000000,,2013-07-17 21:53:00,
2013-07-17 18:01:00,79.0,76.0,-100.00,SW,214,1.0,3.0,90,0.00,,,0.09,181.000000,,2013-07-17 22:01:00,
2013-07-17 18:32:00,79.0,76.0,-100.00,SW,214,1.0,3.0,90,0.00,,,0.09,181.000000,,2013-07-17 22:32:00,
2013-07-17 18:43:00,79.0,76.0,-100.00,SW,214,1.0,3.0,90,0.00,,,0.09,181.000000,,2013-07-17 22:43:00,
2013-07-17 18:53:00,79.0,76.0,-100.00,SW,214,1.0,3.0,90,0.00,,,0.09,181.000000,,2013-07-17 22:53:00,
2013-07-17 19:01:00,80.0,77.0,-100.00,SW,220,2.0,3.0,90,0.00,,,0.09,171.000000,,2013-07-17 23:01:00,
2013-07-17 19:33:00,80.0,77.0,-100.00,SW,220,2.0,3.0,90,0.00,,,0.09,171.000000,,2013-07-17 23:33:00,
2013-07-17 19:43:00,80.0,77.0,-100.00,SW,220,2.0,3.0,90,0.00,,,0.09,171.000000,,2013-07-17 23:43:00,
2013-07-17 19:52:00,80.0,77.0,-100.00,SW,220,2.0,3.0,90,0.00,,,0.09,171.000000,,2013-07-17 23:52:00,
2013-07-17 20:01:00,76.0,74.0,-100.00,SSW,203,2.0,3.0,93,0.00,,,0.09,77.000000,,2013-07-18 00:01:00,
2013-07-17 20:33:00,76.0,74.0,-100.00,SSW,203,2.0,3.0,93,0.00,,,0.09,77.000000,,2013-07-18 00:33:00,
2013-07-17 20:43:00,76.0,74.0,-100.00,SSW,203,2.0,3.0,93,0.00,,,0.09,77.000000,,2013-07-18 00:43:00,
2013-07-17 20:52:00,76.0,74.0,-100.00,SSW,203,2.0,3.0,93,0.00,,,0.09,77.000000,,2013-07-18 00:52:00,
2013-07-17 21:01:00,72.0,70.0,-100.00,West,271,1.0,3.0,93,0.00,,,0.09,7.000000,,2013-07-18 01:01:00,
2013-07-17 21:32:00,72.0,70.0,-100.00,West,271,1.0,3.0,93,0.00,,,0.09,7.000000,,2013-07-18 01:32:00,
2013-07-17 21:43:00,72.0,70.0,-100.00,West,271,1.0,3.0,93,0.00,,,0.09,7.000000,,2013-07-18 01:43:00,
2013-07-17 21:53:00,72.0,70.0,-100.00,West,271,1.0,3.0,93,0.00,,,0.09,7.000000,,2013-07-18 01:53:00,
2013-07-17 22:01:00,74.0,70.0,-100.00,East,85,2.0,4.0,88,0.00,,,0.09,0.000000,,2013-07-18 02:01:00,
2013-07-17 22:32:00,74.0,70.0,-100.00,East,85,2.0,4.0,88,0.00,,,0.09,0.000000,,2013-07-18 02:32:00,
2013-07-17 22:43:00,74.0,70.0,-100.00,East,85,2.0,4.0,88,0.00,,,0.09,0.000000,,2013-07-18 02:43:00,
2013-07-17 22:52:00,74.0,70.0,-100.00,East,85,2.0,4.0,88,0.00,,,0.09,0.000000,,2013-07-18 02:52:00,
2013-07-17 23:01:00,73.0,70.0,-100.00,SE,139,2.0,5.0,89,0.00,,,0.09,0.000000,,2013-07-18 03:01:00,
2013-07-17 23:32:00,73.0,70.0,-100.00,SE,139,2.0,5.0,89,0.00,,,0.09,0.000000,,2013-07-18 03:32:00,
2013-07-17 23:43:00,73.0,70.0,-100.00,SE,139,2.0,5.0,89,0.00,,,0.09,0.000000,,2013-07-18 03:43:00,
2013-07-17 23:52:00,73.0,70.0,-100.00,SE,139,2.0,5.0,89,0.00,,,0.09,0.000000,,2013-07-18 03:52:00,